createdAt,value
2023-02-11T00:00:30.977Z,1025.74
2023-02-11T00:01:03.405Z,1025.71
2023-02-11T00:01:35.877Z,1025.75
2023-02-11T00:02:08.370Z,1025.71
2023-02-11T00:02:40.759Z,1025.76
2023-02-11T00:03:13.280Z,1025.73
2023-02-11T00:03:45.771Z,1025.68
2023-02-11T00:04:18.306Z,1025.70
2023-02-11T00:04:50.795Z,1025.74
2023-02-11T00:05:23.237Z,1025.72
2023-02-11T00:05:55.663Z,1025.74
2023-02-11T00:06:28.184Z,1025.73
2023-02-11T00:07:00.540Z,1025.73
2023-02-11T00:07:33.012Z,1025.75
2023-02-11T00:08:05.436Z,1025.74
2023-02-11T00:08:37.913Z,1025.76
2023-02-11T00:09:10.379Z,1025.75
2023-02-11T00:09:42.836Z,1025.80
2023-02-11T00:10:15.271Z,1025.70
2023-02-11T00:10:47.912Z,1025.71
2023-02-11T00:11:20.171Z,1025.75
2023-02-11T00:11:52.667Z,1025.76
2023-02-11T00:12:25.101Z,1025.79
2023-02-11T00:12:57.547Z,1025.80
2023-02-11T00:13:30.004Z,1025.76
2023-02-11T00:14:02.449Z,1025.75
2023-02-11T00:14:34.956Z,1025.74
2023-02-11T00:15:07.405Z,1025.77
2023-02-11T00:15:39.848Z,1025.74
2023-02-11T00:16:12.455Z,1025.77
2023-02-11T00:16:44.933Z,1025.74
2023-02-11T00:17:17.333Z,1025.75
2023-02-11T00:17:49.813Z,1025.72
2023-02-11T00:18:22.238Z,1025.74
2023-02-11T00:18:54.711Z,1025.74
2023-02-11T00:19:27.164Z,1025.74
2023-02-11T00:19:59.609Z,1025.72
2023-02-11T00:20:32.106Z,1025.71
2023-02-11T00:21:04.556Z,1025.68
2023-02-11T00:21:36.997Z,1025.69
2023-02-11T00:22:09.426Z,1025.72
2023-02-11T00:22:41.966Z,1025.68
2023-02-11T00:23:14.412Z,1025.67
2023-02-11T00:23:46.905Z,1025.65
2023-02-11T00:24:19.326Z,1025.65
2023-02-11T00:24:51.836Z,1025.60
2023-02-11T00:25:24.281Z,1025.63
2023-02-11T00:25:56.753Z,1025.58
2023-02-11T00:26:29.202Z,1025.57
2023-02-11T00:27:01.662Z,1025.63
2023-02-11T00:27:34.119Z,1025.59
2023-02-11T00:28:06.604Z,1025.63
2023-02-11T00:28:39.064Z,1025.64
2023-02-11T00:29:11.507Z,1025.64
2023-02-11T00:29:43.941Z,1025.65
2023-02-11T00:30:16.388Z,1025.64
2023-02-11T00:30:48.901Z,1025.63
2023-02-11T00:31:21.366Z,1025.63
2023-02-11T00:31:53.783Z,1025.73
2023-02-11T00:32:26.193Z,1025.67
2023-02-11T00:32:58.657Z,1025.72
2023-02-11T00:33:31.102Z,1025.68
2023-02-11T00:34:03.549Z,1025.63
2023-02-11T00:34:36.024Z,1025.65
2023-02-11T00:35:08.438Z,1025.62
2023-02-11T00:35:40.880Z,1025.65
2023-02-11T00:36:13.341Z,1025.63
2023-02-11T00:36:45.790Z,1025.61
2023-02-11T00:37:18.245Z,1025.59
2023-02-11T00:37:50.685Z,1025.65
2023-02-11T00:38:23.173Z,1025.61
2023-02-11T00:38:55.673Z,1025.58
2023-02-11T00:39:28.114Z,1025.57
2023-02-11T00:40:00.568Z,1025.58
2023-02-11T00:40:33.051Z,1025.57
2023-02-11T00:41:05.504Z,1025.55
2023-02-11T00:41:37.991Z,1025.55
2023-02-11T00:42:10.513Z,1025.55
2023-02-11T00:42:42.981Z,1025.57
2023-02-11T00:43:15.506Z,1025.53
2023-02-11T00:43:47.979Z,1025.54
2023-02-11T00:44:20.377Z,1025.56
2023-02-11T00:44:52.836Z,1025.54
2023-02-11T00:45:25.342Z,1025.55
2023-02-11T00:45:57.811Z,1025.59
2023-02-11T00:46:30.338Z,1025.58
2023-02-11T00:47:02.696Z,1025.58
2023-02-11T00:47:35.159Z,1025.62
2023-02-11T00:48:07.587Z,1025.64
2023-02-11T00:48:40.058Z,1025.62
2023-02-11T00:49:12.496Z,1025.64
2023-02-11T00:49:44.968Z,1025.58
2023-02-11T00:50:17.422Z,1025.59
2023-02-11T00:50:49.979Z,1025.57
2023-02-11T00:51:22.430Z,1025.58
2023-02-11T00:51:54.879Z,1025.59
2023-02-11T00:52:27.325Z,1025.57
2023-02-11T00:52:59.808Z,1025.59
2023-02-11T00:53:32.261Z,1025.56
2023-02-11T00:54:04.771Z,1025.59
2023-02-11T00:54:37.231Z,1025.60
2023-02-11T00:55:09.668Z,1025.61
2023-02-11T00:55:42.175Z,1025.61
2023-02-11T00:56:14.709Z,1025.63
2023-02-11T00:56:47.169Z,1025.63
2023-02-11T00:57:19.628Z,1025.64
2023-02-11T00:57:52.113Z,1025.64
2023-02-11T00:58:24.591Z,1025.64
2023-02-11T00:58:57.094Z,1025.61
2023-02-11T00:59:29.573Z,1025.61
2023-02-11T01:00:02.019Z,1025.62
2023-02-11T01:00:34.488Z,1025.58
2023-02-11T01:01:06.992Z,1025.60
2023-02-11T01:01:39.461Z,1025.57
2023-02-11T01:02:11.907Z,1025.63
2023-02-11T01:02:44.408Z,1025.60
2023-02-11T01:03:16.826Z,1025.57
2023-02-11T01:03:49.323Z,1025.58
2023-02-11T01:04:21.759Z,1025.58
2023-02-11T01:04:54.438Z,1025.57
2023-02-11T01:05:26.813Z,1025.60
2023-02-11T01:05:59.215Z,1025.59
2023-02-11T01:06:31.660Z,1025.58
2023-02-11T01:07:04.112Z,1025.55
2023-02-11T01:07:36.560Z,1025.58
2023-02-11T01:08:09.022Z,1025.59
2023-02-11T01:08:41.478Z,1025.59
2023-02-11T01:09:13.935Z,1025.55
2023-02-11T01:09:46.429Z,1025.53
2023-02-11T01:10:18.889Z,1025.56
2023-02-11T01:10:51.343Z,1025.55
2023-02-11T01:11:23.813Z,1025.51
2023-02-11T01:11:56.274Z,1025.52
2023-02-11T01:12:28.741Z,1025.50
2023-02-11T01:13:01.209Z,1025.49
2023-02-11T01:13:33.674Z,1025.54
2023-02-11T01:14:06.141Z,1025.49
2023-02-11T01:14:38.597Z,1025.47
2023-02-11T01:15:11.036Z,1025.46
2023-02-11T01:15:43.519Z,1025.50
2023-02-11T01:16:16.105Z,1025.47
2023-02-11T01:16:48.466Z,1025.46
2023-02-11T01:17:20.906Z,1025.47
2023-02-11T01:17:53.369Z,1025.51
2023-02-11T01:18:25.850Z,1025.51
2023-02-11T01:18:58.371Z,1025.55
2023-02-11T01:19:30.921Z,1025.62
2023-02-11T01:20:03.414Z,1025.63
2023-02-11T01:20:35.872Z,1025.67
2023-02-11T01:21:08.316Z,1025.69
2023-02-11T01:21:40.746Z,1025.69
2023-02-11T01:22:13.189Z,1025.69
2023-02-11T01:22:45.651Z,1025.72
2023-02-11T01:23:18.093Z,1025.71
2023-02-11T01:23:50.590Z,1025.66
2023-02-11T01:24:23.054Z,1025.70
2023-02-11T01:24:55.542Z,1025.69
2023-02-11T01:25:28.065Z,1025.71
2023-02-11T01:26:00.568Z,1025.71
2023-02-11T01:26:33.026Z,1025.69
2023-02-11T01:27:05.455Z,1025.71
2023-02-11T01:27:37.898Z,1025.70
2023-02-11T01:28:10.407Z,1025.68
2023-02-11T01:28:42.829Z,1025.66
2023-02-11T01:29:15.283Z,1025.60
2023-02-11T01:29:47.737Z,1025.57
2023-02-11T01:30:20.160Z,1025.57
2023-02-11T01:30:52.688Z,1025.50
2023-02-11T01:31:25.108Z,1025.48
2023-02-11T01:32:16.918Z,1025.44
2023-02-11T01:32:49.379Z,1025.43
2023-02-11T01:33:21.808Z,1025.38
2023-02-11T01:33:54.357Z,1025.36
2023-02-11T01:34:26.818Z,1025.33
2023-02-11T01:34:59.317Z,1025.31
2023-02-11T01:35:31.803Z,1025.29
2023-02-11T01:36:04.288Z,1025.28
2023-02-11T01:36:36.732Z,1025.22
2023-02-11T01:37:09.184Z,1025.19
2023-02-11T01:37:41.631Z,1025.17
2023-02-11T01:38:14.077Z,1025.14
2023-02-11T01:38:46.563Z,1025.19
2023-02-11T01:39:18.994Z,1025.12
2023-02-11T01:39:51.579Z,1025.13
2023-02-11T01:40:24.046Z,1025.07
2023-02-11T01:40:56.468Z,1025.09
2023-02-11T01:41:28.932Z,1025.10
2023-02-11T01:42:01.390Z,1025.09
2023-02-11T01:42:33.897Z,1025.11
2023-02-11T01:43:06.314Z,1025.09
2023-02-11T01:43:38.794Z,1025.15
2023-02-11T01:44:11.293Z,1025.13
2023-02-11T01:44:43.762Z,1025.13
2023-02-11T01:45:16.224Z,1025.17
2023-02-11T01:45:49.057Z,1025.17
2023-02-11T01:46:21.213Z,1025.16
2023-02-11T01:46:53.645Z,1025.14
2023-02-11T01:47:26.047Z,1025.13
2023-02-11T01:47:58.517Z,1025.15
2023-02-11T01:48:30.977Z,1025.13
2023-02-11T01:49:03.484Z,1025.12
2023-02-11T01:49:35.946Z,1025.10
2023-02-11T01:50:08.355Z,1025.12
2023-02-11T01:50:40.878Z,1025.12
2023-02-11T01:51:14.058Z,1025.15
2023-02-11T01:51:46.598Z,1025.13
2023-02-11T01:52:19.044Z,1025.16
2023-02-11T01:52:51.560Z,1025.19
2023-02-11T01:53:24.040Z,1025.24
2023-02-11T01:53:56.506Z,1025.22
2023-02-11T01:54:29.016Z,1025.26
2023-02-11T01:55:01.468Z,1025.28
2023-02-11T01:55:34.006Z,1025.26
2023-02-11T01:56:06.445Z,1025.27
2023-02-11T01:56:39.103Z,1025.28
2023-02-11T01:57:11.578Z,1025.28
2023-02-11T01:57:44.047Z,1025.26
2023-02-11T01:58:16.492Z,1025.28
2023-02-11T01:58:48.925Z,1025.28
2023-02-11T01:59:21.381Z,1025.28
2023-02-11T01:59:54.493Z,1025.28
2023-02-11T02:00:26.978Z,1025.26
2023-02-11T02:00:59.444Z,1025.25
2023-02-11T02:01:31.921Z,1025.23
2023-02-11T02:02:04.452Z,1025.22
2023-02-11T02:02:36.926Z,1025.17
2023-02-11T02:03:09.383Z,1025.16
2023-02-11T02:03:41.906Z,1025.16
2023-02-11T02:04:14.364Z,1025.16
2023-02-11T02:04:46.916Z,1025.14
2023-02-11T02:05:19.384Z,1025.11
2023-02-11T02:05:52.189Z,1025.13
2023-02-11T02:06:24.318Z,1025.14
2023-02-11T02:06:56.776Z,1025.12
2023-02-11T02:07:29.244Z,1025.12
2023-02-11T02:08:01.707Z,1025.13
2023-02-11T02:08:34.139Z,1025.12
2023-02-11T02:09:06.610Z,1025.14
2023-02-11T02:09:39.073Z,1025.11
2023-02-11T02:10:11.577Z,1025.11
2023-02-11T02:10:44.079Z,1025.09
2023-02-11T02:11:16.576Z,1025.06
2023-02-11T02:11:49.061Z,1025.08
2023-02-11T02:12:21.523Z,1025.08
2023-02-11T02:12:53.969Z,1025.07
2023-02-11T02:13:26.456Z,1025.08
2023-02-11T02:13:58.909Z,1025.06
2023-02-11T02:14:31.429Z,1025.09
2023-02-11T02:15:03.973Z,1025.09
2023-02-11T02:15:36.454Z,1025.12
2023-02-11T02:16:09.957Z,1025.05
2023-02-11T02:16:41.448Z,1025.09
2023-02-11T02:17:13.839Z,1025.06
2023-02-11T02:17:46.328Z,1025.10
2023-02-11T02:18:18.853Z,1025.13
2023-02-11T02:18:51.305Z,1025.13
2023-02-11T02:19:23.755Z,1025.14
2023-02-11T02:19:56.259Z,1025.13
2023-02-11T02:20:28.700Z,1025.08
2023-02-11T02:21:01.181Z,1025.10
2023-02-11T02:21:33.639Z,1025.12
2023-02-11T02:22:06.084Z,1025.14
2023-02-11T02:22:38.583Z,1025.10
2023-02-11T02:23:11.020Z,1025.09
2023-02-11T02:23:43.495Z,1025.14
2023-02-11T02:24:15.969Z,1025.10
2023-02-11T02:24:48.484Z,1025.10
2023-02-11T02:25:20.937Z,1025.10
2023-02-11T02:25:53.405Z,1025.08
2023-02-11T02:26:25.841Z,1025.04
2023-02-11T02:26:58.364Z,1024.98
2023-02-11T02:27:30.856Z,1024.98
2023-02-11T02:28:03.336Z,1024.92
2023-02-11T02:28:35.851Z,1024.91
2023-02-11T02:29:08.268Z,1024.87
2023-02-11T02:29:40.764Z,1024.82
2023-02-11T02:30:13.227Z,1024.81
2023-02-11T02:30:45.819Z,1024.85
2023-02-11T02:31:18.306Z,1024.83
2023-02-11T02:31:50.905Z,1024.86
2023-02-11T02:32:23.290Z,1024.87
2023-02-11T02:32:55.782Z,1024.86
2023-02-11T02:33:28.278Z,1024.87
2023-02-11T02:34:00.734Z,1024.87
2023-02-11T02:34:33.209Z,1024.84
2023-02-11T02:35:05.701Z,1024.83
2023-02-11T02:35:38.201Z,1024.82
2023-02-11T02:36:10.651Z,1024.83
2023-02-11T02:36:43.104Z,1024.84
2023-02-11T02:37:15.576Z,1024.84
2023-02-11T02:37:48.060Z,1024.84
2023-02-11T02:38:20.523Z,1024.79
2023-02-11T02:38:53.023Z,1024.81
2023-02-11T02:39:25.479Z,1024.82
2023-02-11T02:39:57.934Z,1024.87
2023-02-11T02:40:30.380Z,1024.84
2023-02-11T02:41:02.833Z,1024.86
2023-02-11T02:41:35.318Z,1024.88
2023-02-11T02:42:07.794Z,1024.90
2023-02-11T02:42:40.311Z,1024.91
2023-02-11T02:43:12.764Z,1024.89
2023-02-11T02:43:45.198Z,1024.88
2023-02-11T02:44:17.640Z,1024.89
2023-02-11T02:44:50.100Z,1024.89
2023-02-11T02:45:22.574Z,1024.89
2023-02-11T02:45:55.042Z,1024.90
2023-02-11T02:46:27.532Z,1024.98
2023-02-11T02:46:59.997Z,1024.99
2023-02-11T02:47:32.400Z,1025.00
2023-02-11T02:48:04.846Z,1024.98
2023-02-11T02:48:37.297Z,1025.00
2023-02-11T02:49:09.757Z,1025.01
2023-02-11T02:49:42.217Z,1025.05
2023-02-11T02:50:14.727Z,1025.07
2023-02-11T02:50:47.187Z,1025.11
2023-02-11T02:51:19.647Z,1025.10
2023-02-11T02:51:52.161Z,1025.14
2023-02-11T02:52:24.614Z,1025.15
2023-02-11T02:52:57.048Z,1025.12
2023-02-11T02:53:29.517Z,1025.10
2023-02-11T02:54:02.004Z,1025.09
2023-02-11T02:54:34.439Z,1025.09
2023-02-11T02:55:06.892Z,1025.10
2023-02-11T02:55:39.323Z,1025.07
2023-02-11T02:56:11.764Z,1025.15
2023-02-11T02:56:44.239Z,1025.14
2023-02-11T02:57:16.718Z,1025.16
2023-02-11T02:57:49.176Z,1025.17
2023-02-11T02:58:21.653Z,1025.18
2023-02-11T02:58:54.100Z,1025.19
2023-02-11T02:59:26.576Z,1025.17
2023-02-11T02:59:59.079Z,1025.15
2023-02-11T03:00:31.574Z,1025.12
2023-02-11T03:01:04.050Z,1025.13
2023-02-11T03:01:36.523Z,1025.13
2023-02-11T03:02:09.001Z,1025.15
2023-02-11T03:02:41.463Z,1025.14
2023-02-11T03:03:13.936Z,1025.13
2023-02-11T03:03:46.438Z,1025.12
2023-02-11T03:04:18.833Z,1025.11
2023-02-11T03:04:51.300Z,1025.07
2023-02-11T03:05:23.738Z,1025.07
2023-02-11T03:05:56.211Z,1025.07
2023-02-11T03:06:28.679Z,1025.06
2023-02-11T03:07:01.174Z,1025.08
2023-02-11T03:07:33.697Z,1025.08
2023-02-11T03:08:06.122Z,1025.07
2023-02-11T03:08:38.580Z,1025.08
2023-02-11T03:09:11.570Z,1025.10
2023-02-11T03:09:43.530Z,1025.09
2023-02-11T03:10:15.980Z,1025.09
2023-02-11T03:10:48.433Z,1025.09
2023-02-11T03:11:20.995Z,1025.07
2023-02-11T03:11:53.481Z,1025.08
2023-02-11T03:12:25.917Z,1025.09
2023-02-11T03:12:58.432Z,1025.08
2023-02-11T03:13:30.953Z,1025.10
2023-02-11T03:14:03.437Z,1025.08
2023-02-11T03:14:35.904Z,1025.08
2023-02-11T03:15:08.368Z,1025.09
2023-02-11T03:15:40.845Z,1025.09
2023-02-11T03:16:13.381Z,1025.05
2023-02-11T03:16:45.771Z,1025.03
2023-02-11T03:17:18.205Z,1025.05
2023-02-11T03:17:50.670Z,1025.05
2023-02-11T03:18:23.131Z,1025.04
2023-02-11T03:18:55.618Z,1025.04
2023-02-11T03:19:28.066Z,1025.02
2023-02-11T03:20:00.515Z,1025.05
2023-02-11T03:20:33.796Z,1025.04
2023-02-11T03:21:06.244Z,1025.04
2023-02-11T03:21:38.738Z,1025.01
2023-02-11T03:22:11.179Z,1025.04
2023-02-11T03:22:43.653Z,1025.03
2023-02-11T03:23:16.150Z,1025.04
2023-02-11T03:23:48.625Z,1025.00
2023-02-11T03:24:21.064Z,1024.99
2023-02-11T03:24:53.519Z,1025.01
2023-02-11T03:25:26.001Z,1024.99
2023-02-11T03:25:58.497Z,1024.94
2023-02-11T03:26:30.923Z,1024.89
2023-02-11T03:27:03.397Z,1024.85
2023-02-11T03:27:35.852Z,1024.82
2023-02-11T03:28:08.387Z,1024.85
2023-02-11T03:28:40.812Z,1024.84
2023-02-11T03:29:13.250Z,1024.87
2023-02-11T03:29:45.709Z,1024.84
2023-02-11T03:30:18.155Z,1024.82
2023-02-11T03:30:50.669Z,1024.86
2023-02-11T03:31:23.277Z,1024.84
2023-02-11T03:31:55.705Z,1024.80
2023-02-11T03:32:28.074Z,1024.80
2023-02-11T03:33:00.537Z,1024.82
2023-02-11T03:33:32.983Z,1024.82
2023-02-11T03:34:05.465Z,1024.83
2023-02-11T03:34:38.003Z,1024.82
2023-02-11T03:35:10.477Z,1024.84
2023-02-11T03:35:42.923Z,1024.85
2023-02-11T03:36:15.388Z,1024.87
2023-02-11T03:36:47.847Z,1024.90
2023-02-11T03:37:20.293Z,1024.89
2023-02-11T03:37:52.758Z,1024.91
2023-02-11T03:38:25.221Z,1024.93
2023-02-11T03:38:57.657Z,1024.94
2023-02-11T03:39:30.120Z,1024.92
2023-02-11T03:40:02.549Z,1024.85
2023-02-11T03:40:34.995Z,1024.94
2023-02-11T03:41:07.448Z,1024.90
2023-02-11T03:41:39.959Z,1024.90
2023-02-11T03:42:12.405Z,1024.91
2023-02-11T03:42:45.049Z,1024.88
2023-02-11T03:43:17.516Z,1024.90
2023-02-11T03:43:49.988Z,1024.84
2023-02-11T03:44:22.451Z,1024.85
2023-02-11T03:44:54.917Z,1024.84
2023-02-11T03:45:27.466Z,1024.80
2023-02-11T03:45:59.895Z,1024.79
2023-02-11T03:46:32.307Z,1024.77
2023-02-11T03:47:04.807Z,1024.79
2023-02-11T03:47:37.276Z,1024.73
2023-02-11T03:48:09.749Z,1024.76
2023-02-11T03:48:42.187Z,1024.81
2023-02-11T03:49:14.670Z,1024.84
2023-02-11T03:49:47.118Z,1024.89
2023-02-11T03:50:19.590Z,1024.84
2023-02-11T03:50:52.049Z,1024.83
2023-02-11T03:51:24.500Z,1024.85
2023-02-11T03:51:56.942Z,1024.85
2023-02-11T03:52:29.380Z,1024.86
2023-02-11T03:53:01.822Z,1024.85
2023-02-11T03:53:34.320Z,1024.84
2023-02-11T03:54:06.757Z,1024.84
2023-02-11T03:54:39.212Z,1024.81
2023-02-11T03:55:11.694Z,1024.84
2023-02-11T03:55:44.217Z,1024.84
2023-02-11T03:56:16.664Z,1024.86
2023-02-11T03:56:49.154Z,1024.86
2023-02-11T03:57:21.626Z,1024.84
2023-02-11T03:57:54.068Z,1024.87
2023-02-11T03:58:26.545Z,1024.86
2023-02-11T03:58:59.054Z,1024.83
2023-02-11T03:59:31.497Z,1024.87
2023-02-11T04:00:03.949Z,1024.86
2023-02-11T04:00:36.415Z,1024.86
2023-02-11T04:01:08.966Z,1024.88
2023-02-11T04:01:41.330Z,1024.86
2023-02-11T04:02:13.768Z,1024.86
2023-02-11T04:02:46.260Z,1024.89
2023-02-11T04:03:18.665Z,1024.87
2023-02-11T04:03:51.104Z,1024.86
2023-02-11T04:04:23.540Z,1024.85
2023-02-11T04:04:55.982Z,1024.87
2023-02-11T04:05:28.430Z,1024.90
2023-02-11T04:06:00.911Z,1024.88
2023-02-11T04:06:33.347Z,1024.93
2023-02-11T04:07:05.798Z,1024.91
2023-02-11T04:07:38.246Z,1024.94
2023-02-11T04:08:10.760Z,1024.95
2023-02-11T04:08:43.204Z,1024.92
2023-02-11T04:09:15.630Z,1024.92
2023-02-11T04:09:48.086Z,1024.90
2023-02-11T04:10:20.537Z,1024.89
2023-02-11T04:10:52.993Z,1024.86
2023-02-11T04:11:25.455Z,1024.89
2023-02-11T04:11:57.926Z,1024.90
2023-02-11T04:12:30.386Z,1024.92
2023-02-11T04:13:02.847Z,1024.90
2023-02-11T04:13:35.297Z,1024.92
2023-02-11T04:14:07.763Z,1024.95
2023-02-11T04:14:40.212Z,1024.95
2023-02-11T04:15:12.650Z,1024.97
2023-02-11T04:15:46.718Z,1025.00
2023-02-11T04:16:17.720Z,1024.98
2023-02-11T04:16:50.168Z,1025.03
2023-02-11T04:17:22.610Z,1025.05
2023-02-11T04:17:55.085Z,1025.06
2023-02-11T04:18:27.522Z,1025.11
2023-02-11T04:18:59.994Z,1025.11
2023-02-11T04:19:32.479Z,1025.08
2023-02-11T04:20:04.968Z,1025.08
2023-02-11T04:20:37.426Z,1025.02
2023-02-11T04:21:09.871Z,1025.04
2023-02-11T04:21:42.343Z,1025.08
2023-02-11T04:22:14.835Z,1025.08
2023-02-11T04:22:47.276Z,1025.06
2023-02-11T04:23:19.750Z,1025.07
2023-02-11T04:23:52.216Z,1025.12
2023-02-11T04:24:24.660Z,1025.09
2023-02-11T04:24:57.099Z,1025.07
2023-02-11T04:25:29.552Z,1025.07
2023-02-11T04:26:02.045Z,1025.08
2023-02-11T04:26:34.494Z,1025.06
2023-02-11T04:27:06.977Z,1025.08
2023-02-11T04:27:39.443Z,1025.05
2023-02-11T04:28:11.937Z,1025.06
2023-02-11T04:28:44.368Z,1025.02
2023-02-11T04:29:16.810Z,1025.02
2023-02-11T04:29:49.253Z,1025.01
2023-02-11T04:30:21.710Z,1025.01
2023-02-11T04:30:54.270Z,1025.01
2023-02-11T04:31:26.689Z,1024.99
2023-02-11T04:31:59.172Z,1025.02
2023-02-11T04:32:31.584Z,1025.00
2023-02-11T04:33:04.022Z,1024.98
2023-02-11T04:33:36.479Z,1025.00
2023-02-11T04:34:08.950Z,1024.98
2023-02-11T04:34:41.391Z,1025.02
2023-02-11T04:35:13.844Z,1025.02
2023-02-11T04:35:46.320Z,1025.00
2023-02-11T04:36:18.782Z,1024.98
2023-02-11T04:36:51.233Z,1024.98
2023-02-11T04:37:23.708Z,1025.00
2023-02-11T04:37:56.158Z,1024.98
2023-02-11T04:38:29.320Z,1024.96
2023-02-11T04:39:01.806Z,1024.95
2023-02-11T04:39:34.252Z,1024.89
2023-02-11T04:40:06.728Z,1024.87
2023-02-11T04:40:39.185Z,1024.87
2023-02-11T04:41:11.644Z,1024.86
2023-02-11T04:41:44.104Z,1024.90
2023-02-11T04:42:16.570Z,1024.89
2023-02-11T04:42:49.038Z,1024.89
2023-02-11T04:43:21.538Z,1024.86
2023-02-11T04:43:53.995Z,1024.88
2023-02-11T04:44:26.452Z,1024.88
2023-02-11T04:44:58.908Z,1024.91
2023-02-11T04:45:31.405Z,1024.93
2023-02-11T04:46:03.924Z,1024.91
2023-02-11T04:46:36.306Z,1024.89
2023-02-11T04:47:08.856Z,1024.88
2023-02-11T04:47:41.345Z,1024.92
2023-02-11T04:48:13.812Z,1024.91
2023-02-11T04:48:46.308Z,1024.91
2023-02-11T04:49:18.789Z,1024.90
2023-02-11T04:49:51.265Z,1024.91
2023-02-11T04:50:23.696Z,1024.93
2023-02-11T04:50:56.176Z,1024.94
2023-02-11T04:51:28.625Z,1024.96
2023-02-11T04:52:01.061Z,1024.96
2023-02-11T04:52:33.580Z,1024.98
2023-02-11T04:53:06.005Z,1024.95
2023-02-11T04:53:38.461Z,1024.91
2023-02-11T04:54:10.908Z,1024.92
2023-02-11T04:54:43.478Z,1024.94
2023-02-11T04:55:15.904Z,1024.98
2023-02-11T04:55:48.637Z,1024.97
2023-02-11T04:56:20.838Z,1024.96
2023-02-11T04:56:53.329Z,1024.99
2023-02-11T04:57:25.795Z,1024.99
2023-02-11T04:57:58.228Z,1024.98
2023-02-11T04:58:30.692Z,1024.96
2023-02-11T04:59:03.133Z,1024.99
2023-02-11T04:59:35.559Z,1024.99
2023-02-11T05:00:08.077Z,1025.03
2023-02-11T05:00:40.577Z,1024.99
2023-02-11T05:01:13.116Z,1025.00
2023-02-11T05:01:45.558Z,1025.00
2023-02-11T05:02:18.017Z,1024.99
2023-02-11T05:02:50.461Z,1024.99
2023-02-11T05:03:22.892Z,1024.96
2023-02-11T05:03:55.488Z,1024.95
2023-02-11T05:04:27.978Z,1024.93
2023-02-11T05:05:00.365Z,1024.92
2023-02-11T05:05:32.835Z,1024.94
2023-02-11T05:06:05.267Z,1024.93
2023-02-11T05:06:37.757Z,1024.90
2023-02-11T05:07:10.325Z,1024.89
2023-02-11T05:07:42.792Z,1024.87
2023-02-11T05:08:15.271Z,1024.89
2023-02-11T05:08:47.741Z,1024.87
2023-02-11T05:09:20.191Z,1024.85
2023-02-11T05:09:52.638Z,1024.90
2023-02-11T05:10:25.114Z,1024.90
2023-02-11T05:10:57.603Z,1024.94
2023-02-11T05:11:30.072Z,1024.88
2023-02-11T05:12:02.606Z,1024.92
2023-02-11T05:12:35.051Z,1024.91
2023-02-11T05:13:07.499Z,1024.91
2023-02-11T05:13:39.968Z,1024.91
2023-02-11T05:14:12.409Z,1024.92
2023-02-11T05:14:44.870Z,1024.91
2023-02-11T05:15:17.334Z,1024.93
2023-02-11T05:15:50.103Z,1024.91
2023-02-11T05:16:22.317Z,1024.94
2023-02-11T05:16:54.768Z,1024.93
2023-02-11T05:17:27.282Z,1024.93
2023-02-11T05:17:59.728Z,1024.90
2023-02-11T05:18:32.159Z,1024.93
2023-02-11T05:19:04.594Z,1024.91
2023-02-11T05:19:37.049Z,1024.91
2023-02-11T05:20:09.509Z,1024.91
2023-02-11T05:20:41.966Z,1024.91
2023-02-11T05:21:14.437Z,1024.95
2023-02-11T05:22:01.365Z,1024.92
2023-02-11T05:22:19.376Z,1024.93
2023-02-11T05:22:51.849Z,1024.92
2023-02-11T05:23:24.279Z,1024.89
2023-02-11T05:23:56.767Z,1024.88
2023-02-11T05:24:29.240Z,1024.87
2023-02-11T05:25:01.680Z,1024.85
2023-02-11T05:25:34.117Z,1024.84
2023-02-11T05:26:06.613Z,1024.88
2023-02-11T05:26:39.125Z,1024.87
2023-02-11T05:27:11.573Z,1024.81
2023-02-11T05:27:44.041Z,1024.90
2023-02-11T05:28:16.566Z,1024.92
2023-02-11T05:28:49.095Z,1024.89
2023-02-11T05:29:21.568Z,1024.90
2023-02-11T05:29:54.025Z,1024.89
2023-02-11T05:30:26.502Z,1024.95
2023-02-11T05:30:58.983Z,1024.92
2023-02-11T05:31:31.449Z,1024.95
2023-02-11T05:32:03.908Z,1024.95
2023-02-11T05:32:36.379Z,1024.97
2023-02-11T05:33:08.884Z,1024.97
2023-02-11T05:33:41.353Z,1024.97
2023-02-11T05:34:13.946Z,1024.99
2023-02-11T05:34:46.398Z,1024.94
2023-02-11T05:35:18.873Z,1024.94
2023-02-11T05:35:51.650Z,1024.91
2023-02-11T05:36:23.833Z,1024.94
2023-02-11T05:36:56.329Z,1024.95
2023-02-11T05:37:28.801Z,1024.97
2023-02-11T05:38:01.282Z,1024.96
2023-02-11T05:38:33.714Z,1024.96
2023-02-11T05:39:06.232Z,1024.99
2023-02-11T05:39:38.740Z,1024.99
2023-02-11T05:40:11.211Z,1025.00
2023-02-11T05:40:43.728Z,1025.01
2023-02-11T05:41:16.219Z,1025.01
2023-02-11T05:41:48.744Z,1025.00
2023-02-11T05:42:21.277Z,1024.99
2023-02-11T05:42:53.760Z,1024.99
2023-02-11T05:43:26.245Z,1024.98
2023-02-11T05:43:58.710Z,1024.96
2023-02-11T05:44:31.172Z,1024.94
2023-02-11T05:45:03.654Z,1024.96
2023-02-11T05:45:36.146Z,1024.98
2023-02-11T05:46:08.621Z,1024.97
2023-02-11T05:46:41.168Z,1024.97
2023-02-11T05:47:13.578Z,1024.95
2023-02-11T05:47:46.116Z,1025.01
2023-02-11T05:48:18.591Z,1024.99
2023-02-11T05:48:51.164Z,1024.97
2023-02-11T05:49:23.631Z,1024.97
2023-02-11T05:49:56.112Z,1024.95
2023-02-11T05:50:28.590Z,1024.98
2023-02-11T05:51:01.048Z,1024.94
2023-02-11T05:51:33.514Z,1024.91
2023-02-11T05:52:05.995Z,1024.94
2023-02-11T05:52:38.480Z,1024.94
2023-02-11T05:53:10.955Z,1024.98
2023-02-11T05:53:43.433Z,1024.97
2023-02-11T05:54:15.894Z,1024.94
2023-02-11T05:54:48.409Z,1024.95
2023-02-11T05:55:20.846Z,1024.97
2023-02-11T05:55:53.414Z,1024.94
2023-02-11T05:56:25.785Z,1024.95
2023-02-11T05:56:58.253Z,1024.94
2023-02-11T05:57:30.701Z,1024.92
2023-02-11T05:58:03.197Z,1024.92
2023-02-11T05:58:35.693Z,1024.94
2023-02-11T05:59:08.124Z,1024.90
2023-02-11T05:59:40.592Z,1024.91
2023-02-11T06:00:13.048Z,1024.89
2023-02-11T06:00:45.524Z,1024.90
2023-02-11T06:01:17.986Z,1024.88
2023-02-11T06:01:50.466Z,1024.85
2023-02-11T06:02:23.215Z,1024.85
2023-02-11T06:02:55.748Z,1024.87
2023-02-11T06:03:28.308Z,1024.86
2023-02-11T06:04:00.753Z,1024.85
2023-02-11T06:04:33.133Z,1024.83
2023-02-11T06:05:05.617Z,1024.82
2023-02-11T06:05:38.087Z,1024.82
2023-02-11T06:06:10.551Z,1024.84
2023-02-11T06:06:43.050Z,1024.84
2023-02-11T06:07:15.596Z,1024.86
2023-02-11T06:07:48.068Z,1024.86
2023-02-11T06:08:20.498Z,1024.89
2023-02-11T06:08:53.020Z,1024.91
2023-02-11T06:09:25.543Z,1024.91
2023-02-11T06:09:58.001Z,1024.91
2023-02-11T06:10:30.470Z,1024.89
2023-02-11T06:11:02.900Z,1024.91
2023-02-11T06:11:35.405Z,1024.88
2023-02-11T06:12:07.931Z,1024.92
2023-02-11T06:12:40.375Z,1024.92
2023-02-11T06:13:12.868Z,1024.90
2023-02-11T06:13:45.362Z,1024.89
2023-02-11T06:14:17.785Z,1024.86
2023-02-11T06:14:50.255Z,1024.87
2023-02-11T06:15:22.767Z,1024.84
2023-02-11T06:15:55.303Z,1024.85
2023-02-11T06:16:27.882Z,1024.84
2023-02-11T06:17:00.213Z,1024.82
2023-02-11T06:17:32.653Z,1024.81
2023-02-11T06:18:05.097Z,1024.82
2023-02-11T06:18:37.594Z,1024.78
2023-02-11T06:19:10.055Z,1024.79
2023-02-11T06:19:42.487Z,1024.83
2023-02-11T06:20:14.959Z,1024.80
2023-02-11T06:20:47.424Z,1024.82
2023-02-11T06:21:19.897Z,1024.82
2023-02-11T06:21:52.373Z,1024.84
2023-02-11T06:22:24.830Z,1024.85
2023-02-11T06:22:57.292Z,1024.87
2023-02-11T06:23:30.576Z,1024.86
2023-02-11T06:24:02.219Z,1024.86
2023-02-11T06:24:58.694Z,1024.87
2023-02-11T06:25:07.134Z,1024.90
2023-02-11T06:25:39.581Z,1024.90
2023-02-11T06:26:12.071Z,1024.87
2023-02-11T06:26:44.552Z,1024.87
2023-02-11T06:27:17.066Z,1024.87
2023-02-11T06:27:49.600Z,1024.87
2023-02-11T06:28:22.119Z,1024.87
2023-02-11T06:28:54.544Z,1024.88
2023-02-11T06:29:26.999Z,1024.90
2023-02-11T06:29:59.458Z,1024.90
2023-02-11T06:30:31.944Z,1024.91
2023-02-11T06:31:04.552Z,1024.91
2023-02-11T06:31:36.926Z,1024.92
2023-02-11T06:32:23.319Z,1024.91
2023-02-11T06:32:44.849Z,1024.89
2023-02-11T06:33:14.337Z,1024.84